createdAt,value
2023-05-21T00:00:10.446Z,84.59
2023-05-21T00:01:09.501Z,84.59
2023-05-21T00:03:02.988Z,84.69
2023-05-21T00:04:03.066Z,84.79
2023-05-21T00:05:02.911Z,84.79
2023-05-21T00:06:02.894Z,84.89
2023-05-21T00:07:02.841Z,84.89
2023-05-21T00:08:03.242Z,84.89
2023-05-21T00:09:02.837Z,84.89
2023-05-21T00:10:02.822Z,84.99
2023-05-21T00:11:02.778Z,84.99
2023-05-21T00:12:02.781Z,84.99
2023-05-21T00:13:03.268Z,85.10
2023-05-21T00:14:02.758Z,85.10
2023-05-21T00:15:02.760Z,85.30
2023-05-21T00:16:02.785Z,85.30
2023-05-21T00:17:02.699Z,85.30
2023-05-21T00:18:02.748Z,85.39
2023-05-21T00:19:02.744Z,85.30
2023-05-21T00:20:02.684Z,85.39
2023-05-21T00:21:02.668Z,85.60
2023-05-21T00:22:02.659Z,85.74
2023-05-21T00:23:02.657Z,85.74
2023-05-21T00:24:02.636Z,85.84
2023-05-21T00:25:02.755Z,85.70
2023-05-21T00:26:02.625Z,85.70
2023-05-21T00:27:02.570Z,85.84
2023-05-21T00:28:02.572Z,85.94
2023-05-21T00:29:02.546Z,85.94
2023-05-21T00:30:03.548Z,85.94
2023-05-21T00:31:02.514Z,86.15
2023-05-21T00:32:02.608Z,86.15
2023-05-21T00:33:02.863Z,86.35
2023-05-21T00:34:02.492Z,86.55
2023-05-21T00:35:02.469Z,86.55
2023-05-21T00:36:02.504Z,86.76
2023-05-21T00:37:02.478Z,86.76
2023-05-21T00:38:02.500Z,86.90
2023-05-21T00:39:02.544Z,87.00
2023-05-21T00:40:02.439Z,87.10
2023-05-21T00:41:03.265Z,87.20
2023-05-21T00:42:02.414Z,87.20
2023-05-21T00:43:02.380Z,87.20
2023-05-21T00:44:02.352Z,87.30
2023-05-21T00:45:02.360Z,87.30
2023-05-21T00:46:03.312Z,87.30
2023-05-21T00:47:02.340Z,87.30
2023-05-21T00:48:02.358Z,87.40
2023-05-21T00:49:02.285Z,87.40
2023-05-21T00:50:02.291Z,87.51
2023-05-21T00:51:02.274Z,87.60
2023-05-21T00:52:02.299Z,87.71
2023-05-21T00:53:02.229Z,87.71
2023-05-21T00:54:02.235Z,87.71
2023-05-21T00:55:02.213Z,87.81
2023-05-21T00:56:02.210Z,88.01
2023-05-21T00:57:02.188Z,88.01
2023-05-21T00:58:02.264Z,88.01
2023-05-21T00:59:02.179Z,88.01
2023-05-21T01:00:02.171Z,88.21
2023-05-21T01:01:02.175Z,88.31
2023-05-21T01:02:02.203Z,88.31
2023-05-21T01:03:02.342Z,88.46
2023-05-21T01:04:02.186Z,88.56
2023-05-21T01:05:02.093Z,88.56
2023-05-21T01:06:02.069Z,88.46
2023-05-21T01:07:02.052Z,88.56
2023-05-21T01:08:02.045Z,88.66
2023-05-21T01:09:03.843Z,88.66
2023-05-21T01:10:02.045Z,88.56
2023-05-21T01:11:01.986Z,88.56
2023-05-21T01:12:02.011Z,88.56
2023-05-21T01:13:01.998Z,88.66
2023-05-21T01:14:02.039Z,88.66
2023-05-21T01:15:02.000Z,88.51
2023-05-21T01:16:01.935Z,88.66
2023-05-21T01:17:02.162Z,88.76
2023-05-21T01:18:01.977Z,88.66
2023-05-21T01:19:01.982Z,88.66
2023-05-21T01:20:01.915Z,88.76
2023-05-21T01:21:01.863Z,88.86
2023-05-21T01:22:01.875Z,88.86
2023-05-21T01:23:01.854Z,88.82
2023-05-21T01:24:01.821Z,88.72
2023-05-21T01:25:01.844Z,88.51
2023-05-21T01:26:01.801Z,88.42
2023-05-21T01:27:01.772Z,88.42
2023-05-21T01:28:01.810Z,88.51
2023-05-21T01:29:01.752Z,88.82
2023-05-21T01:30:01.800Z,88.82
2023-05-21T01:31:01.780Z,88.72
2023-05-21T01:32:01.794Z,88.62
2023-05-21T01:33:01.853Z,88.42
2023-05-21T01:34:01.894Z,88.42
2023-05-21T01:35:01.721Z,88.62
2023-05-21T01:36:01.721Z,88.62
2023-05-21T01:37:01.699Z,88.51
2023-05-21T01:38:01.753Z,88.42
2023-05-21T01:39:01.652Z,88.37
2023-05-21T01:40:01.668Z,88.42
2023-05-21T01:41:01.664Z,88.51
2023-05-21T01:42:01.594Z,88.72
2023-05-21T01:43:01.603Z,88.72
2023-05-21T01:44:01.602Z,88.48
2023-05-21T01:45:01.584Z,88.48
2023-05-21T01:46:01.607Z,88.48
2023-05-21T01:47:01.561Z,88.48
2023-05-21T01:48:01.937Z,88.48
2023-05-21T01:49:01.502Z,88.48
2023-05-21T01:50:01.525Z,88.57
2023-05-21T01:51:01.461Z,88.68
2023-05-21T01:52:01.486Z,88.57
2023-05-21T01:53:01.443Z,88.68
2023-05-21T01:54:01.452Z,88.68
2023-05-21T01:55:01.447Z,88.68
2023-05-21T01:56:01.504Z,88.68
2023-05-21T01:57:01.462Z,88.72
2023-05-21T01:58:02.625Z,88.72
2023-05-21T01:59:01.387Z,88.82
2023-05-21T02:00:01.380Z,89.02
2023-05-21T02:01:01.342Z,88.92
2023-05-21T02:02:01.473Z,89.02
2023-05-21T02:03:01.441Z,89.02
2023-05-21T02:04:01.335Z,89.02
2023-05-21T02:05:01.356Z,89.12
2023-05-21T02:06:01.322Z,89.23
2023-05-21T02:07:01.293Z,89.32
2023-05-21T02:08:01.300Z,89.43
2023-05-21T02:09:01.259Z,89.53
2023-05-21T02:10:01.275Z,89.53
2023-05-21T02:11:01.208Z,89.53
2023-05-21T02:12:01.893Z,89.63
2023-05-21T02:13:01.270Z,89.63
2023-05-21T02:14:01.211Z,89.77
2023-05-21T02:15:01.182Z,89.87
2023-05-21T02:16:01.181Z,89.98
2023-05-21T02:17:01.516Z,89.98
2023-05-21T02:18:01.186Z,90.08
2023-05-21T02:19:01.176Z,90.18
2023-05-21T02:20:01.186Z,90.18
2023-05-21T02:21:01.123Z,90.28
2023-05-21T02:22:01.133Z,90.38
2023-05-21T02:23:01.115Z,90.48
2023-05-21T02:24:01.308Z,90.48
2023-05-21T02:25:01.138Z,90.58
2023-05-21T02:26:01.061Z,90.58
2023-05-21T02:27:01.043Z,90.79
2023-05-21T02:28:01.752Z,90.79
2023-05-21T02:29:00.989Z,90.79
2023-05-21T02:30:01.023Z,90.89
2023-05-21T02:31:00.950Z,90.89
2023-05-21T02:32:01.000Z,90.89
2023-05-21T02:33:01.695Z,90.99
2023-05-21T02:34:01.062Z,90.99
2023-05-21T02:35:00.990Z,91.19
2023-05-21T02:36:00.937Z,91.09
2023-05-21T02:37:00.901Z,91.19
2023-05-21T02:38:00.873Z,91.19
2023-05-21T02:39:00.878Z,91.30
2023-05-21T02:40:01.107Z,91.54
2023-05-21T02:41:01.049Z,91.54
2023-05-21T02:42:00.914Z,91.54
2023-05-21T02:43:00.819Z,91.64
2023-05-21T02:44:00.795Z,91.64
2023-05-21T02:45:00.854Z,91.64
2023-05-21T02:46:01.196Z,91.74
2023-05-21T02:47:00.773Z,91.85
2023-05-21T02:48:00.802Z,91.85
2023-05-21T02:49:00.966Z,91.74
2023-05-21T02:50:00.751Z,91.85
2023-05-21T02:51:00.731Z,91.94
2023-05-21T02:52:00.748Z,91.94
2023-05-21T02:53:00.726Z,92.05
2023-05-21T02:54:00.682Z,92.05
2023-05-21T02:55:00.668Z,92.05
2023-05-21T02:56:00.672Z,92.14
2023-05-21T02:57:01.147Z,92.14
2023-05-21T02:58:00.622Z,92.14
2023-05-21T02:59:00.640Z,92.25
2023-05-21T03:00:00.598Z,92.35
2023-05-21T03:01:00.619Z,92.45
2023-05-21T03:02:00.668Z,92.65
2023-05-21T03:03:00.629Z,92.65
2023-05-21T03:04:00.561Z,92.65
2023-05-21T03:05:00.578Z,92.65
2023-05-21T03:06:00.524Z,92.65
2023-05-21T03:07:00.490Z,92.65
2023-05-21T03:08:01.168Z,92.76
2023-05-21T03:09:00.486Z,92.96
2023-05-21T03:10:00.473Z,92.96
2023-05-21T03:11:00.451Z,92.86
2023-05-21T03:12:00.457Z,92.96
2023-05-21T03:13:00.444Z,92.96
2023-05-21T03:14:01.324Z,93.06
2023-05-21T03:15:00.409Z,93.06
2023-05-21T03:16:00.394Z,93.06
2023-05-21T03:17:00.504Z,93.16
2023-05-21T03:18:00.450Z,93.21
2023-05-21T03:19:00.400Z,93.30
2023-05-21T03:20:00.351Z,93.30
2023-05-21T03:21:00.327Z,93.30
2023-05-21T03:22:00.304Z,93.41
2023-05-21T03:23:00.376Z,93.51
2023-05-21T03:24:00.311Z,93.41
2023-05-21T03:25:00.292Z,93.51
2023-05-21T03:26:00.237Z,93.41
2023-05-21T03:27:00.241Z,93.51
2023-05-21T03:28:00.231Z,93.51
2023-05-21T03:29:00.301Z,93.46
2023-05-21T03:30:00.240Z,93.41
2023-05-21T03:31:00.229Z,93.37
2023-05-21T03:32:00.266Z,93.37
2023-05-21T03:33:00.233Z,93.37
2023-05-21T03:34:00.287Z,93.37
2023-05-21T03:35:00.225Z,93.46
2023-05-21T03:36:00.198Z,93.46
2023-05-21T03:37:00.188Z,93.57
2023-05-21T03:38:00.167Z,93.57
2023-05-21T03:39:00.135Z,93.67
2023-05-21T03:40:00.204Z,93.57
2023-05-21T03:41:00.163Z,93.57
2023-05-21T03:42:00.139Z,93.57
2023-05-21T03:43:00.036Z,93.57
2023-05-21T03:44:00.021Z,93.57
2023-05-21T03:45:00.036Z,93.57
2023-05-21T03:46:00.022Z,93.46
2023-05-21T03:47:00.110Z,93.57
2023-05-21T03:48:00.005Z,93.57
2023-05-21T03:48:59.993Z,93.46
2023-05-21T03:50:00.001Z,93.37
2023-05-21T03:50:59.912Z,93.37
2023-05-21T03:51:59.930Z,93.37
2023-05-21T03:52:59.887Z,93.37
2023-05-21T03:53:59.932Z,93.37
2023-05-21T03:54:59.877Z,93.37
2023-05-21T03:55:59.868Z,93.26
2023-05-21T03:57:00.225Z,93.12
2023-05-21T03:57:59.827Z,93.26
2023-05-21T03:58:59.825Z,93.26
2023-05-21T03:59:59.823Z,93.26
2023-05-21T04:00:59.796Z,93.26
2023-05-21T04:01:59.781Z,93.26
2023-05-21T04:02:59.887Z,93.12
2023-05-21T04:03:59.896Z,93.12
2023-05-21T04:04:59.756Z,93.12
2023-05-21T04:05:59.721Z,93.12
2023-05-21T04:06:59.745Z,93.02
2023-05-21T04:07:59.730Z,92.91
2023-05-21T04:08:59.772Z,92.91
2023-05-21T04:09:59.681Z,92.82
2023-05-21T04:10:59.672Z,92.82
2023-05-21T04:11:59.656Z,92.71
2023-05-21T04:12:59.649Z,92.82
2023-05-21T04:13:59.711Z,92.71
2023-05-21T04:14:59.629Z,92.61
2023-05-21T04:15:59.623Z,92.51
2023-05-21T04:16:59.598Z,92.51
2023-05-21T04:17:59.591Z,92.36
2023-05-21T04:18:59.632Z,92.26
2023-05-21T04:19:59.608Z,92.26
2023-05-21T04:20:59.724Z,92.26
2023-05-21T04:21:59.540Z,92.16
2023-05-21T04:22:59.510Z,92.16
2023-05-21T04:23:59.488Z,92.06
2023-05-21T04:24:59.549Z,91.96
2023-05-21T04:25:59.468Z,91.86
2023-05-21T04:26:59.478Z,91.75
2023-05-21T04:27:59.448Z,91.75
2023-05-21T04:28:59.487Z,91.61
2023-05-21T04:29:59.413Z,91.41
2023-05-21T04:30:59.459Z,91.31
2023-05-21T04:31:59.394Z,91.31
2023-05-21T04:32:59.460Z,91.20
2023-05-21T04:33:59.363Z,91.20
2023-05-21T04:34:59.349Z,91.00
2023-05-21T04:35:59.381Z,90.91
2023-05-21T04:36:59.316Z,90.70
2023-05-21T04:37:59.292Z,90.80
2023-05-21T04:38:59.352Z,90.80
2023-05-21T04:39:59.264Z,90.66
2023-05-21T04:40:59.319Z,90.45
2023-05-21T04:41:59.249Z,90.45
2023-05-21T04:42:59.262Z,90.25
2023-05-21T04:43:59.224Z,90.05
2023-05-21T04:44:59.227Z,89.81
2023-05-21T04:45:59.233Z,89.70
2023-05-21T04:46:59.232Z,89.61
2023-05-21T04:47:59.222Z,89.61
2023-05-21T04:48:59.154Z,89.61
2023-05-21T04:49:59.143Z,89.50
2023-05-21T04:50:59.140Z,89.30
2023-05-21T04:51:59.134Z,89.06
2023-05-21T04:52:59.165Z,88.85
2023-05-21T04:53:59.106Z,88.85
2023-05-21T04:54:59.134Z,88.55
2023-05-21T04:55:59.069Z,88.35
2023-05-21T04:56:59.086Z,88.35
2023-05-21T04:57:59.049Z,88.25
2023-05-21T04:58:59.063Z,88.45
2023-05-21T04:59:59.030Z,88.35
2023-05-21T05:00:59.041Z,88.35
2023-05-21T05:01:59.004Z,88.15
2023-05-21T05:02:59.087Z,88.35
2023-05-21T05:03:59.054Z,88.21
2023-05-21T05:04:58.954Z,88.10
2023-05-21T05:05:58.950Z,87.90
2023-05-21T05:06:58.953Z,88.01
2023-05-21T05:07:58.941Z,87.90
2023-05-21T05:08:58.934Z,87.90
2023-05-21T05:09:58.905Z,87.90
2023-05-21T05:10:58.915Z,88.01
2023-05-21T05:11:58.880Z,88.01
2023-05-21T05:12:58.854Z,88.01
2023-05-21T05:14:00.830Z,87.90
2023-05-21T05:14:58.857Z,87.70
2023-05-21T05:15:58.817Z,87.70
2023-05-21T05:16:58.913Z,87.56
2023-05-21T05:17:58.819Z,87.46
2023-05-21T05:18:59.123Z,87.15
2023-05-21T05:19:58.750Z,87.15
2023-05-21T05:20:58.758Z,87.05
2023-05-21T05:21:58.734Z,86.95
2023-05-21T05:22:58.742Z,86.75
2023-05-21T05:23:58.695Z,86.75
2023-05-21T05:24:58.745Z,86.75
2023-05-21T05:25:58.700Z,86.75
2023-05-21T05:26:58.667Z,86.85
2023-05-21T05:27:58.653Z,86.61
2023-05-21T05:28:58.663Z,86.41
2023-05-21T05:29:58.705Z,86.21
2023-05-21T05:30:58.645Z,86.00
2023-05-21T05:31:58.598Z,85.90
2023-05-21T05:32:58.649Z,85.90
2023-05-21T05:33:58.585Z,85.90
2023-05-21T05:35:00.381Z,85.90
2023-05-21T05:35:58.538Z,86.00
2023-05-21T05:36:58.551Z,86.00
2023-05-21T05:37:58.532Z,85.86
2023-05-21T05:38:58.538Z,85.66
2023-05-21T05:39:58.493Z,85.36
2023-05-21T05:40:58.544Z,85.56
2023-05-21T05:41:58.461Z,85.56
2023-05-21T05:42:58.499Z,85.46
2023-05-21T05:43:58.428Z,85.56
2023-05-21T05:44:58.433Z,85.46
2023-05-21T05:45:58.507Z,85.46
2023-05-21T05:46:58.422Z,85.02
2023-05-21T05:47:58.439Z,85.02
2023-05-21T05:48:58.437Z,84.91
2023-05-21T05:49:58.356Z,84.81
2023-05-21T05:50:58.360Z,84.81
2023-05-21T05:51:58.328Z,84.71
2023-05-21T05:52:58.338Z,84.41
2023-05-21T05:53:58.311Z,84.71
2023-05-21T05:54:58.347Z,84.61
2023-05-21T05:55:58.293Z,84.41
2023-05-21T05:56:58.273Z,84.31
2023-05-21T05:57:58.258Z,84.01
2023-05-21T05:58:58.261Z,83.91
2023-05-21T05:59:58.281Z,84.01
2023-05-21T06:00:58.282Z,83.87
2023-05-21T06:01:58.186Z,83.76
2023-05-21T06:04:15.637Z,83.56
2023-05-21T06:05:15.057Z,83.66
2023-05-21T06:06:14.966Z,83.46
2023-05-21T06:07:14.785Z,83.56
2023-05-21T06:08:14.895Z,83.56
2023-05-21T06:09:15.544Z,83.56
2023-05-21T06:10:14.783Z,83.46
2023-05-21T06:11:14.724Z,83.16
2023-05-21T06:12:14.973Z,83.16
2023-05-21T06:13:14.887Z,83.02
2023-05-21T06:14:14.674Z,82.82
2023-05-21T06:15:14.684Z,82.62
2023-05-21T06:16:14.692Z,82.62
2023-05-21T06:17:14.718Z,82.51
2023-05-21T06:18:14.750Z,82.62
2023-05-21T06:19:14.742Z,82.42
2023-05-21T06:20:14.598Z,82.11
2023-05-21T06:21:14.594Z,82.31
2023-05-21T06:22:14.573Z,82.21
2023-05-21T06:23:14.571Z,82.42
2023-05-21T06:24:14.546Z,82.18
2023-05-21T06:25:14.591Z,82.18
2023-05-21T06:26:15.217Z,81.98
2023-05-21T06:27:14.588Z,81.77
2023-05-21T06:28:14.515Z,81.47
2023-05-21T06:29:15.495Z,81.37
2023-05-21T06:30:14.479Z,81.37
2023-05-21T06:31:14.490Z,81.17
2023-05-21T06:32:14.452Z,81.27
2023-05-21T06:33:14.550Z,81.07
2023-05-21T06:34:14.414Z,80.97
2023-05-21T06:35:15.263Z,80.97
2023-05-21T06:36:14.422Z,81.07
2023-05-21T06:37:14.420Z,81.07
2023-05-21T06:38:14.375Z,80.87
2023-05-21T06:39:14.364Z,80.97
2023-05-21T06:40:14.565Z,80.97
2023-05-21T06:41:14.347Z,80.87
2023-05-21T06:42:14.324Z,80.97
2023-05-21T06:43:15.716Z,80.87
2023-05-21T06:44:14.299Z,80.93
2023-05-21T06:45:14.375Z,80.73
2023-05-21T06:46:14.279Z,80.73
2023-05-21T06:47:14.281Z,80.52
2023-05-21T06:48:14.272Z,80.43
2023-05-21T06:49:14.549Z,80.43
2023-05-21T06:50:14.316Z,80.22
2023-05-21T06:51:14.215Z,80.19
2023-05-21T06:52:14.191Z,80.08
2023-05-21T06:53:14.178Z,79.48
2023-05-21T06:54:14.254Z,79.48
2023-05-21T06:55:14.171Z,79.44
2023-05-21T06:56:14.249Z,79.04
2023-05-21T06:57:14.160Z,78.74
2023-05-21T06:58:14.203Z,78.64
2023-05-21T06:59:14.119Z,78.44
2023-05-21T07:00:14.157Z,78.50
2023-05-21T07:01:14.125Z,78.60
2023-05-21T07:02:14.136Z,78.00
2023-05-21T07:03:14.306Z,78.00
2023-05-21T07:04:14.045Z,77.56
2023-05-21T07:05:14.047Z,77.46
2023-05-21T07:06:14.039Z,77.16
2023-05-21T07:07:13.997Z,77.06
2023-05-21T07:08:14.011Z,76.82
2023-05-21T07:09:13.970Z,76.12
2023-05-21T07:10:14.060Z,75.82
2023-05-21T07:11:13.948Z,75.71
2023-05-21T07:12:13.933Z,75.85
2023-05-21T07:13:13.913Z,75.95
2023-05-21T07:14:13.949Z,75.71
2023-05-21T07:15:13.941Z,75.92
2023-05-21T07:16:13.964Z,75.82
2023-05-21T07:17:13.898Z,75.48
2023-05-21T07:18:14.194Z,75.08
2023-05-21T07:19:13.883Z,75.18
2023-05-21T07:20:13.852Z,75.04
2023-05-21T07:21:13.814Z,74.64
2023-05-21T07:22:13.840Z,74.04
2023-05-21T07:23:13.823Z,73.60
2023-05-21T07:24:13.832Z,73.94
2023-05-21T07:25:13.853Z,74.20
2023-05-21T07:26:13.795Z,73.80
2023-05-21T07:27:24.717Z,73.90
2023-05-21T07:28:15.953Z,73.77
2023-05-21T07:29:13.743Z,73.47
2023-05-21T07:30:13.736Z,73.16
2023-05-21T07:31:13.771Z,73.16
2023-05-21T07:32:13.704Z,72.66
2023-05-21T07:33:13.690Z,72.56
2023-05-21T07:34:13.670Z,72.23
2023-05-21T07:35:13.703Z,72.03
2023-05-21T07:36:13.652Z,71.86
2023-05-21T07:37:13.645Z,72.16
2023-05-21T07:38:13.898Z,71.93
2023-05-21T07:39:13.584Z,71.73
2023-05-21T07:40:13.611Z,71.83
2023-05-21T07:41:13.549Z,71.73
2023-05-21T07:42:13.555Z,71.69
2023-05-21T07:43:13.583Z,70.69
2023-05-21T07:44:13.518Z,71.19
2023-05-21T07:45:13.521Z,71.00
2023-05-21T07:46:13.698Z,71.09
2023-05-21T07:47:13.486Z,71.00
2023-05-21T07:48:13.477Z,71.19
2023-05-21T07:49:13.482Z,71.30
2023-05-21T07:50:13.705Z,70.96
2023-05-21T07:51:13.465Z,70.86
2023-05-21T07:52:13.453Z,70.16
2023-05-21T07:53:13.528Z,69.56
2023-05-21T07:54:13.431Z,70.36
2023-05-21T07:55:13.396Z,70.06
2023-05-21T07:56:13.401Z,70.03
2023-05-21T07:57:13.379Z,70.03
2023-05-21T07:58:13.350Z,69.73
2023-05-21T07:59:13.877Z,69.32
2023-05-21T08:00:13.327Z,69.43
2023-05-21T08:01:13.331Z,69.53
2023-05-21T08:02:13.569Z,69.23
2023-05-21T08:03:13.555Z,68.93
2023-05-21T08:04:13.549Z,68.29
2023-05-21T08:05:13.366Z,68.69
2023-05-21T08:06:13.392Z,67.79
2023-05-21T08:07:13.233Z,68.23
2023-05-21T08:08:13.256Z,68.62
2023-05-21T08:09:13.192Z,68.49
2023-05-21T08:10:13.248Z,68.59
2023-05-21T08:11:13.200Z,68.59
2023-05-21T08:12:13.178Z,68.36
2023-05-21T08:13:13.232Z,67.76
2023-05-21T08:14:13.152Z,67.56
2023-05-21T08:15:13.128Z,67.53
2023-05-21T08:16:13.240Z,67.13
2023-05-21T08:17:13.093Z,66.63
2023-05-21T08:18:13.114Z,66.63
2023-05-21T08:19:13.110Z,66.96
2023-05-21T08:20:13.099Z,66.86
2023-05-21T08:21:13.049Z,67.26
2023-05-21T08:22:13.211Z,67.26
2023-05-21T08:23:13.035Z,67.16
2023-05-21T08:24:13.084Z,67.36
2023-05-21T08:25:13.010Z,66.96
2023-05-21T08:26:13.055Z,67.06
2023-05-21T08:27:12.985Z,66.76
2023-05-21T08:28:12.971Z,66.63
2023-05-21T08:29:12.991Z,66.93
2023-05-21T08:30:12.995Z,66.43
2023-05-21T08:31:12.948Z,66.43
2023-05-21T08:32:12.969Z,66.30
2023-05-21T08:33:12.976Z,65.70
2023-05-21T08:34:12.930Z,66.00
2023-05-21T08:35:13.240Z,66.00
2023-05-21T08:36:12.876Z,65.67
2023-05-21T08:37:12.870Z,65.56
2023-05-21T08:38:12.853Z,64.97
2023-05-21T08:39:12.817Z,64.67
2023-05-21T08:40:12.826Z,64.67
2023-05-21T08:41:12.828Z,64.44
2023-05-21T08:42:14.301Z,63.94
2023-05-21T08:43:12.789Z,63.64
2023-05-21T08:44:12.768Z,63.94
2023-05-21T08:45:12.768Z,63.74
2023-05-21T08:46:12.763Z,63.84
2023-05-21T08:47:12.719Z,63.44
2023-05-21T08:48:12.729Z,63.24
2023-05-21T08:49:12.717Z,63.14
2023-05-21T08:50:12.710Z,62.84
2023-05-21T08:51:12.672Z,63.44
2023-05-21T08:52:12.700Z,63.54
2023-05-21T08:53:19.748Z,63.64
2023-05-21T08:54:13.650Z,63.44
2023-05-21T08:55:12.617Z,63.97
2023-05-21T08:56:12.680Z,64.07
2023-05-21T08:57:13.243Z,64.27
2023-05-21T08:58:12.602Z,64.14
2023-05-21T08:59:12.573Z,64.04
2023-05-21T09:00:12.550Z,63.64
2023-05-21T09:01:12.605Z,63.34
2023-05-21T09:02:12.572Z,63.11
2023-05-21T09:03:12.615Z,63.11
2023-05-21T09:04:20.975Z,62.51
2023-05-21T09:05:13.482Z,62.61
2023-05-21T09:06:12.502Z,62.61
2023-05-21T09:07:12.448Z,62.71
2023-05-21T09:08:12.470Z,62.41
2023-05-21T09:09:12.432Z,62.51
2023-05-21T09:10:12.570Z,62.31
2023-05-21T09:11:12.490Z,62.41
2023-05-21T09:12:12.405Z,62.08
2023-05-21T09:13:12.374Z,62.08
2023-05-21T09:14:12.383Z,61.69
2023-05-21T09:15:12.364Z,61.69
2023-05-21T09:16:12.635Z,61.69
2023-05-21T09:17:12.530Z,61.58
2023-05-21T09:18:12.408Z,61.29
2023-05-21T09:19:12.349Z,61.91
2023-05-21T09:20:12.479Z,61.88
2023-05-21T09:21:12.288Z,61.88
2023-05-21T09:22:12.283Z,62.08
2023-05-21T09:23:12.278Z,61.39
2023-05-21T09:24:12.252Z,60.96
2023-05-21T09:25:12.422Z,60.86
2023-05-21T09:26:12.257Z,60.66
2023-05-21T09:27:12.459Z,60.76
2023-05-21T09:28:12.664Z,60.46
2023-05-21T09:29:12.208Z,60.76
2023-05-21T09:30:12.208Z,60.73
2023-05-21T09:31:12.197Z,60.73
2023-05-21T09:32:12.152Z,60.63
2023-05-21T09:33:12.205Z,60.53
2023-05-21T09:34:12.145Z,59.01
2023-05-21T09:35:12.214Z,58.91
2023-05-21T09:36:12.168Z,58.81
2023-05-21T09:37:23.668Z,59.14
2023-05-21T09:38:13.090Z,59.34
2023-05-21T09:39:12.087Z,59.74
2023-05-21T09:40:12.116Z,59.31
2023-05-21T09:41:12.274Z,59.21
2023-05-21T09:42:12.046Z,58.91
2023-05-21T09:43:12.016Z,59.21
2023-05-21T09:44:12.065Z,58.88
2023-05-21T09:45:12.031Z,58.88
2023-05-21T09:46:12.029Z,58.88
2023-05-21T09:47:11.973Z,58.45
2023-05-21T09:48:11.955Z,58.26
2023-05-21T09:49:12.196Z,57.76
2023-05-21T09:50:11.904Z,57.96
2023-05-21T09:51:11.877Z,57.99
2023-05-21T09:52:11.905Z,57.99
2023-05-21T09:53:11.910Z,57.89
2023-05-21T09:54:11.855Z,57.69
2023-05-21T09:55:11.861Z,57.49
2023-05-21T09:56:11.848Z,57.59
2023-05-21T09:57:11.800Z,57.19
2023-05-21T09:58:11.867Z,56.70
2023-05-21T09:59:11.796Z,56.49
2023-05-21T10:00:11.894Z,56.57
2023-05-21T10:01:11.831Z,56.47
2023-05-21T10:02:11.805Z,56.37
2023-05-21T10:03:11.819Z,56.44
2023-05-21T10:04:11.994Z,55.94
2023-05-21T10:05:11.697Z,55.94
2023-05-21T10:06:11.713Z,55.35
2023-05-21T10:07:11.670Z,55.25
2023-05-21T10:08:11.732Z,55.85
2023-05-21T10:09:11.854Z,55.52
2023-05-21T10:10:11.674Z,54.93
2023-05-21T10:11:11.620Z,54.72
2023-05-21T10:12:11.747Z,54.63
2023-05-21T10:13:11.630Z,54.23
2023-05-21T10:14:11.629Z,54.33
2023-05-21T10:15:11.567Z,53.83
2023-05-21T10:16:11.604Z,54.03
2023-05-21T10:17:11.562Z,54.33
2023-05-21T10:18:11.610Z,54.13
2023-05-21T10:19:11.563Z,54.10
2023-05-21T10:20:11.536Z,53.51
2023-05-21T10:21:11.688Z,53.01
2023-05-21T10:22:11.581Z,52.42
2023-05-21T10:23:11.503Z,52.72
2023-05-21T10:24:11.464Z,52.51
2023-05-21T10:25:11.486Z,52.19
2023-05-21T10:26:11.451Z,52.09
2023-05-21T10:27:11.424Z,52.59
2023-05-21T10:28:11.488Z,52.47
2023-05-21T10:29:11.389Z,52.26
2023-05-21T10:30:11.400Z,52.07
2023-05-21T10:31:11.379Z,52.17
2023-05-21T10:32:11.567Z,52.04
2023-05-21T10:33:11.391Z,51.65
2023-05-21T10:34:11.378Z,50.83
2023-05-21T10:35:11.351Z,50.53
2023-05-21T10:36:11.316Z,50.34
2023-05-21T10:37:11.414Z,50.23
2023-05-21T10:38:11.319Z,50.34
2023-05-21T10:39:11.287Z,50.23
2023-05-21T10:40:11.281Z,50.73
2023-05-21T10:41:11.273Z,50.43
2023-05-21T10:42:11.499Z,50.43
2023-05-21T10:43:11.773Z,50.53
2023-05-21T10:44:11.206Z,50.93
2023-05-21T10:45:11.207Z,51.42
2023-05-21T10:46:11.303Z,51.82
2023-05-21T10:47:11.170Z,52.31
2023-05-21T10:48:11.541Z,52.31
2023-05-21T10:49:11.145Z,53.01
2023-05-21T10:50:11.167Z,53.20
2023-05-21T10:51:11.112Z,53.11
2023-05-21T10:52:11.210Z,51.82
2023-05-21T10:53:11.124Z,50.73
2023-05-21T10:54:11.118Z,50.83
2023-05-21T10:55:11.099Z,49.84
2023-05-21T10:56:11.063Z,49.05
2023-05-21T10:57:11.057Z,49.07
2023-05-21T10:58:11.627Z,49.17
2023-05-21T10:59:11.068Z,49.57
2023-05-21T11:00:11.097Z,49.17
2023-05-21T11:01:11.191Z,49.76
2023-05-21T11:02:11.099Z,49.79
2023-05-21T11:03:12.134Z,50.06
2023-05-21T11:04:10.974Z,50.38
2023-05-21T11:05:11.202Z,50.48
2023-05-21T11:06:10.984Z,51.15
2023-05-21T11:07:12.143Z,51.54
2023-05-21T11:08:11.513Z,51.45
2023-05-21T11:09:10.953Z,50.26
2023-05-21T11:10:10.890Z,50.06
2023-05-21T11:11:10.911Z,48.67
2023-05-21T11:12:10.904Z,48.67
2023-05-21T11:13:10.878Z,48.57
2023-05-21T11:14:10.853Z,48.35
2023-05-21T11:15:10.870Z,48.45
2023-05-21T11:16:11.297Z,48.25
2023-05-21T11:17:11.050Z,48.25
2023-05-21T11:18:11.411Z,48.15
2023-05-21T11:19:10.814Z,47.93
2023-05-21T11:20:10.773Z,48.23
2023-05-21T11:21:10.768Z,47.63
2023-05-21T11:22:10.756Z,47.34
2023-05-21T11:23:10.743Z,47.44
2023-05-21T11:24:10.773Z,47.24
2023-05-21T11:25:10.736Z,47.22
2023-05-21T11:26:10.726Z,47.12
2023-05-21T11:27:10.739Z,46.92
2023-05-21T11:28:10.788Z,46.45
2023-05-21T11:29:10.665Z,46.62
2023-05-21T11:30:10.729Z,46.82
2023-05-21T11:31:10.698Z,46.40
2023-05-21T11:32:10.889Z,46.30
2023-05-21T11:33:10.708Z,46.23
2023-05-21T11:34:10.658Z,46.23
2023-05-21T11:35:10.581Z,46.12
2023-05-21T11:36:10.726Z,46.11
2023-05-21T11:37:10.618Z,45.81
2023-05-21T11:38:10.655Z,45.71
2023-05-21T11:39:10.608Z,45.41
2023-05-21T11:40:10.530Z,45.49
2023-05-21T11:41:10.628Z,45.19
2023-05-21T11:42:10.639Z,45.19
2023-05-21T11:43:10.543Z,44.97
2023-05-21T11:44:10.524Z,45.09
2023-05-21T11:45:11.936Z,44.80
2023-05-21T11:46:10.595Z,44.80
2023-05-21T11:47:10.513Z,44.90
2023-05-21T11:48:10.998Z,45.17
2023-05-21T11:49:10.410Z,45.39
2023-05-21T11:50:10.394Z,44.90
2023-05-21T11:51:10.559Z,45.00
2023-05-21T11:52:10.378Z,45.00
2023-05-21T11:53:10.352Z,45.29
2023-05-21T11:54:10.346Z,45.19
2023-05-21T11:55:10.392Z,45.49
2023-05-21T11:56:10.432Z,45.79
2023-05-21T11:57:10.325Z,46.08
2023-05-21T11:58:10.306Z,45.09
2023-05-21T11:59:10.340Z,45.51
2023-05-21T12:00:10.279Z,45.71
2023-05-21T12:01:11.207Z,45.61
2023-05-21T12:02:10.249Z,45.71
2023-05-21T12:03:10.382Z,45.21
2023-05-21T12:04:17.224Z,45.51
2023-05-21T12:05:10.754Z,45.21
2023-05-21T12:06:10.310Z,45.01
2023-05-21T12:07:10.354Z,45.21
2023-05-21T12:08:10.192Z,45.31
2023-05-21T12:09:10.179Z,45.12
2023-05-21T12:10:10.170Z,44.62
2023-05-21T12:11:10.184Z,44.52
2023-05-21T12:12:10.103Z,44.52
2023-05-21T12:13:10.133Z,44.52
2023-05-21T12:14:10.161Z,44.40
2023-05-21T12:15:10.429Z,44.40
2023-05-21T12:16:10.660Z,44.40
2023-05-21T12:17:10.665Z,44.40
2023-05-21T12:18:11.032Z,44.18
2023-05-21T12:19:10.488Z,44.09
2023-05-21T12:20:10.055Z,43.98
2023-05-21T12:21:12.396Z,44.40
2023-05-21T12:22:10.093Z,44.70
2023-05-21T12:23:09.994Z,44.80
2023-05-21T12:24:10.471Z,44.70
2023-05-21T12:25:09.985Z,45.09
2023-05-21T12:26:09.970Z,44.90
2023-05-21T12:27:09.943Z,44.78
2023-05-21T12:28:10.012Z,44.20
2023-05-21T12:29:09.937Z,44.60
2023-05-21T12:30:09.917Z,45.00
2023-05-21T12:31:09.906Z,44.40
2023-05-21T12:32:09.917Z,44.09
2023-05-21T12:33:09.878Z,43.98
2023-05-21T12:34:09.873Z,43.39
2023-05-21T12:35:09.921Z,43.69
2023-05-21T12:36:09.841Z,43.59
2023-05-21T12:37:09.818Z,43.88
2023-05-21T12:38:09.800Z,44.38
2023-05-21T12:39:11.352Z,44.50
2023-05-21T12:40:09.775Z,44.60
2023-05-21T12:41:09.758Z,45.19
2023-05-21T12:42:09.723Z,44.90
2023-05-21T12:43:09.749Z,44.68
2023-05-21T12:44:09.699Z,44.78
2023-05-21T12:45:09.686Z,44.46
2023-05-21T12:46:09.820Z,44.06
2023-05-21T12:47:09.910Z,44.56
2023-05-21T12:48:09.724Z,43.88
2023-05-21T12:49:09.647Z,43.59
2023-05-21T12:50:09.692Z,43.88
2023-05-21T12:51:09.620Z,44.28
2023-05-21T12:52:09.609Z,44.28
2023-05-21T12:53:09.596Z,44.48
2023-05-21T12:54:10.045Z,44.48